Time;durP1;ratioP1;P1;durP2;ratioP2;P2;SDS_P1;SDS_P2;PMS_P1;PMS_P2;Temp;Humidity;BMP_temperature;BMP_pressure;BME280_temperature;BME280_humidity;BME280_pressure;Samples;Min_cycle;Max_cycle;Signal;HPM_P1;HPM_P2
2023/03/17 00:00:03;;;;;;;;;;;;;;;;;;;;;
2023/03/17 00:00:23;;;;;;;4.93;2.65;;;;;;;;;;499164;29;929;-76
2023/03/17 00:00:45;;;;;;;4.05;2.80;;;;;;;;;;499599;29;1219;-77
2023/03/17 00:01:04;;;;;;;3.88;2.65;;;;;;;;;;498436;29;1376;-76
2023/03/17 00:01:55;;;;;;;3.80;2.72;;;;;;;;;;499407;29;1318;-76
2023/03/17 00:02:11;;;;;;;4.38;2.80;;;;;;;;;;495419;29;2069;-76
2023/03/17 00:03:36;;;;;;;4.38;2.85;;;;;;;;;;500704;29;976;-76
2023/03/17 00:04:05;;;;;;;4.95;2.70;;;;;;;;;;494314;29;1450;-76
2023/03/17 00:04:35;;;;;;;5.72;2.80;;;;;;;;;;498550;29;1488;-76
2023/03/17 00:05:34;;;;;;;3.58;2.67;;;;;;;;;;495709;29;1383;-76
2023/03/17 00:06:33;;;;;;;4.40;2.80;;;;;;;;;;494159;29;1418;-75
2023/03/17 00:07:10;;;;;;;4.65;2.83;;;;;;;;;;494123;29;1370;-75
2023/03/17 00:08:23;;;;;;;;;;;;;;;;;;;;;
2023/03/17 00:08:40;;;;;;;4.25;2.70;;;;;;;;;;491130;29;1344;-76
2023/03/17 00:09:10;;;;;;;4.97;2.97;;;;;;;;;;489127;29;1877;-75
2023/03/17 00:09:26;;;;;;;4.20;3.00;;;;;;;;;;491199;29;1481;-75
2023/03/17 00:09:54;;;;;;;4.25;3.00;;;;;;;;;;490988;29;1333;-75
2023/03/17 00:10:24;;;;;;;4.22;2.92;;;;;;;;;;491812;29;1625;-75
2023/03/17 00:11:02;;;;;;;4.88;2.85;;;;;;;;;;489706;29;1336;-75
2023/03/17 00:11:54;;;;;;;5.28;3.00;;;;;;;;;;498143;29;1346;-75
2023/03/17 00:12:11;;;;;;;4.00;2.70;;;;;;;;;;492046;29;1378;-75
2023/03/17 00:12:30;;;;;;;4.45;2.80;;;;;;;;;;490623;29;1282;-76
2023/03/17 00:12:55;;;;;;;4.15;2.80;;;;;;;;;;490778;29;1859;-76
2023/03/17 00:13:11;;;;;;;4.40;2.78;;;;;;;;;;491568;29;1365;-75
2023/03/17 00:14:02;;;;;;;4.15;2.70;;;;;;;;;;491937;29;1871;-76
2023/03/17 00:14:33;;;;;;;6.10;2.92;;;;;;;;;;490328;29;1446;-76
2023/03/17 00:15:10;;;;;;;4.97;3.00;;;;;;;;;;487904;29;1500;-76
2023/03/17 00:16:21;;;;;;;4.00;2.70;;;;;;;;;;486286;29;1205;-76
2023/03/17 00:17:03;;;;;;;3.75;2.80;;;;;;;;;;485791;29;1404;-76
2023/03/17 00:17:39;;;;;;;4.30;3.00;;;;;;;;;;487268;29;1640;-76
2023/03/17 00:18:09;;;;;;;3.92;2.67;;;;;;;;;;488924;29;2054;-76
2023/03/17 00:18:26;;;;;;;4.72;2.90;;;;;;;;;;491103;29;1159;-76
2023/03/17 00:19:05;;;;;;;4.95;2.80;;;;;;;;;;492326;29;1275;-76
2023/03/17 00:20:05;;;;;;;4.10;2.63;;;;;;;;;;493971;29;1417;-76
2023/03/17 00:20:29;;;;;;;4.25;2.90;;;;;;;;;;491328;29;1342;-76
2023/03/17 00:21:03;;;;;;;4.78;2.88;;;;;;;;;;494579;29;1259;-75
2023/03/17 00:21:34;;;;;;;3.72;2.78;;;;;;;;;;495818;29;1445;-76
2023/03/17 00:21:53;;;;;;;3.63;2.60;;;;;;;;;;494496;29;1365;-76
2023/03/17 00:22:21;;;;;;;4.75;2.70;;;;;;;;;;497860;29;1488;-77
2023/03/17 00:22:43;;;;;;;3.83;2.60;;;;;;;;;;497125;29;1280;-77
2023/03/17 00:23:24;;;;;;;4.78;2.80;;;;;;;;;;496878;29;1456;-74
2023/03/17 00:23:51;;;;;;;4.35;2.90;;;;;;;;;;496436;29;1287;-74
2023/03/17 00:24:11;;;;;;;4.55;3.03;;;;;;;;;;493921;29;1407;-75
2023/03/17 00:24:33;;;;;;;4.20;2.75;;;;;;;;;;495550;29;1492;-75
2023/03/17 00:24:54;;;;;;;3.75;2.75;;;;;;;;;;494908;29;1252;-75
2023/03/17 00:25:36;;;;;;;4.93;2.67;;;;;;;;;;494418;29;1169;-74
2023/03/17 00:26:11;;;;;;;4.78;2.90;;;;;;;;;;487227;29;1932;-74
2023/03/17 00:26:54;;;;;;;4.63;2.67;;;;;;;;;;488542;29;1921;-75
2023/03/17 00:27:12;;;;;;;4.38;2.88;;;;;;;;;;490648;29;1270;-75
2023/03/17 00:28:02;;;;;;;4.13;2.90;;;;;;;;;;490451;29;1426;-75
2023/03/17 00:28:31;;;;;;;4.15;2.90;;;;;;;;;;490167;29;1334;-75
2023/03/17 00:28:50;;;;;;;3.95;2.90;;;;;;;;;;488608;29;1617;-76
2023/03/17 00:29:05;;;;;;;4.32;3.00;;;;;;;;;;489354;29;957;-75
2023/03/17 00:29:25;;;;;;;4.05;2.83;;;;;;;;;;488292;29;1442;-75
2023/03/17 00:30:04;;;;;;;3.60;2.70;;;;;;;;;;486425;29;1324;-76
2023/03/17 00:30:21;;;;;;;3.63;2.65;;;;;;;;;;479709;30;1513;-75
2023/03/17 00:31:03;;;;;;;3.53;2.70;;;;;;;;;;476453;30;1551;-75
2023/03/17 00:32:04;;;;;;;4.18;2.63;;;;;;;;;;488476;29;1355;-76
2023/03/17 00:32:29;;;;;;;4.40;3.00;;;;;;;;;;486462;29;1521;-75
2023/03/17 00:33:05;;;;;;;4.88;2.80;;;;;;;;;;487176;29;1360;-75
2023/03/17 00:33:54;;;;;;;3.50;2.42;;;;;;;;;;487404;29;1538;-76
2023/03/17 00:34:35;;;;;;;4.10;2.85;;;;;;;;;;481313;30;1274;-76
2023/03/17 00:35:04;;;;;;;4.25;2.80;;;;;;;;;;479456;30;1359;-76
2023/03/17 00:35:41;;;;;;;4.45;2.80;;;;;;;;;;480847;30;1485;-75
2023/03/17 00:36:12;;;;;;;3.63;2.58;;;;;;;;;;479850;30;1471;-76
2023/03/17 00:37:08;;;;;;;3.10;2.60;;;;;;;;;;480347;30;1385;-75
2023/03/17 00:37:28;;;;;;;4.35;2.90;;;;;;;;;;478563;30;1894;-76
2023/03/17 00:38:10;;;;;;;5.03;3.45;;;;;;;;;;479703;30;1428;-75
2023/03/17 00:39:12;;;;;;;3.35;2.85;;;;;;;;;;480997;30;1384;-75
2023/03/17 00:40:05;;;;;;;5.22;3.08;;;;;;;;;;476679;30;1644;-75
2023/03/17 00:40:31;;;;;;;4.28;2.78;;;;;;;;;;477656;30;1380;-75
2023/03/17 00:41:05;;;;;;;4.15;2.90;;;;;;;;;;477047;30;1485;-76
2023/03/17 00:42:06;;;;;;;4.82;3.03;;;;;;;;;;478822;30;1317;-75
2023/03/17 00:43:04;;;;;;;3.80;2.85;;;;;;;;;;476583;30;1456;-75
2023/03/17 00:43:20;;;;;;;4.72;2.90;;;;;;;;;;478414;30;1493;-74
2023/03/17 00:43:58;;;;;;;4.83;2.90;;;;;;;;;;477177;30;1382;-75
2023/03/17 00:44:57;;;;;;;4.63;2.70;;;;;;;;;;481210;30;1288;-75
2023/03/17 00:45:34;;;;;;;5.07;2.88;;;;;;;;;;477776;30;1365;-75
2023/03/17 00:46:09;;;;;;;4.68;2.90;;;;;;;;;;475972;30;1389;-74
2023/03/17 00:46:59;;;;;;;5.03;2.78;;;;;;;;;;482788;30;1998;-74
2023/03/17 00:48:18;;;;;;;4.85;2.90;;;;;;;;;;482979;29;1519;-75
2023/03/17 00:48:57;;;;;;;4.68;2.90;;;;;;;;;;480127;30;1473;-75
2023/03/17 00:49:47;;;;;;;;;;;;;;;;;;;;;
2023/03/17 00:50:49;;;;;;;;;;;;;;;;;;;;;
2023/03/17 00:51:05;;;;;;;6.03;2.88;;;;;;;;;;483232;30;1374;-76
2023/03/17 00:51:29;;;;;;;5.57;2.90;;;;;;;;;;484984;30;1210;-74
2023/03/17 00:51:57;;;;;;;4.50;2.90;;;;;;;;;;486532;29;1490;-75
2023/03/17 00:52:19;;;;;;;4.38;2.78;;;;;;;;;;491424;29;1409;-76
2023/03/17 00:53:26;;;;;;;5.15;2.95;;;;;;;;;;494458;29;1390;-74
2023/03/17 00:54:03;;;;;;;5.20;2.85;;;;;;;;;;492902;29;1227;-76
2023/03/17 00:54:44;;;;;;;5.80;2.95;;;;;;;;;;493368;29;2053;-74
2023/03/17 00:55:03;;;;;;;4.32;2.90;;;;;;;;;;485307;29;1298;-75
2023/03/17 00:55:26;;;;;;;4.95;3.05;;;;;;;;;;485936;29;1123;-75
2023/03/17 00:56:12;;;;;;;4.72;3.08;;;;;;;;;;482870;29;1199;-74
2023/03/17 00:56:31;;;;;;;3.58;2.60;;;;;;;;;;481430;30;1428;-75
2023/03/17 00:56:48;;;;;;;4.13;2.83;;;;;;;;;;482984;30;1537;-75
2023/03/17 00:57:09;;;;;;;3.85;2.90;;;;;;;;;;483858;30;1508;-76
2023/03/17 00:58:34;;;;;;;4.07;3.08;;;;;;;;;;487886;29;1360;-75
2023/03/17 01:00:00;;;;;;;4.35;2.80;;;;;;;;;;484993;29;1363;-75
2023/03/17 01:01:02;;;;;;;3.90;2.90;;;;;;;;;;487794;29;1628;-75
2023/03/17 01:02:00;;;;;;;;;;;;;;;;;;;;;
2023/03/17 01:02:25;;;;;;;3.90;2.80;;;;;;;;;;487403;29;1502;-75
2023/03/17 01:03:11;;;;;;;4.15;2.70;;;;;;;;;;483021;30;1396;-75
2023/03/17 01:04:00;;;;;;;5.93;3.10;;;;;;;;;;488962;29;1354;-76
2023/03/17 01:04:45;;;;;;;3.83;3.00;;;;;;;;;;489481;29;1393;-75
2023/03/17 01:05:07;;;;;;;3.70;2.80;;;;;;;;;;490479;29;1433;-75
2023/03/17 01:05:32;;;;;;;4.57;2.80;;;;;;;;;;489942;29;1329;-75
2023/03/17 01:05:57;;;;;;;5.03;3.00;;;;;;;;;;486908;29;1187;-76
2023/03/17 01:06:17;;;;;;;3.67;2.70;;;;;;;;;;489150;29;1506;-75
2023/03/17 01:06:36;;;;;;;3.65;2.72;;;;;;;;;;484841;29;1427;-75
2023/03/17 01:07:04;;;;;;;4.03;2.78;;;;;;;;;;491417;29;1441;-75
2023/03/17 01:08:04;;;;;;;4.18;3.00;;;;;;;;;;497375;29;1600;-76
2023/03/17 01:08:51;;;;;;;3.72;3.10;;;;;;;;;;494970;29;1530;-75
2023/03/17 01:09:07;;;;;;;3.45;2.83;;;;;;;;;;493898;29;1367;-74
2023/03/17 01:10:05;;;;;;;3.92;3.10;;;;;;;;;;498673;29;953;-75
2023/03/17 01:10:47;;;;;;;18.63;16.67;;;;;;;;;;495828;29;1153;-75
2023/03/17 01:11:03;;;;;;;22.88;20.42;;;;;;;;;;488715;29;1326;-75
2023/03/17 01:11:29;;;;;;;31.73;27.95;;;;;;;;;;493611;29;1360;-75
2023/03/17 01:12:06;;;;;;;31.75;27.98;;;;;;;;;;492190;29;1200;-75
2023/03/17 01:12:31;;;;;;;16.30;14.00;;;;;;;;;;498325;29;1650;-74
2023/03/17 01:13:17;;;;;;;7.68;6.00;;;;;;;;;;496148;29;1511;-76
2023/03/17 01:14:06;;;;;;;6.80;5.80;;;;;;;;;;500426;28;1544;-75
2023/03/17 01:14:23;;;;;;;10.50;8.80;;;;;;;;;;501148;29;1342;-75
2023/03/17 01:15:04;;;;;;;9.38;6.35;;;;;;;;;;501428;28;1485;-73
2023/03/17 01:15:34;;;;;;;4.10;3.30;;;;;;;;;;503133;28;1399;-75
2023/03/17 01:16:11;;;;;;;4.88;3.70;;;;;;;;;;503368;28;1363;-74
2023/03/17 01:16:27;;;;;;;12.82;11.40;;;;;;;;;;504611;28;1298;-75
2023/03/17 01:16:51;;;;;;;10.13;8.80;;;;;;;;;;501208;28;1611;-75
2023/03/17 01:17:26;;;;;;;5.82;3.95;;;;;;;;;;503434;28;1456;-75
2023/03/17 01:17:45;;;;;;;5.32;3.80;;;;;;;;;;502163;28;960;-75
2023/03/17 01:18:27;;;;;;;6.10;4.22;;;;;;;;;;497662;29;1551;-75
2023/03/17 01:19:32;;;;;;;6.82;4.75;;;;;;;;;;503523;28;1320;-75
2023/03/17 01:21:07;;;;;;;5.55;3.53;;;;;;;;;;493493;29;1146;-75
2023/03/17 01:21:35;;;;;;;4.88;3.53;;;;;;;;;;499088;29;1341;-75
2023/03/17 01:22:05;;;;;;;6.43;4.40;;;;;;;;;;496736;29;1225;-76
2023/03/17 01:22:50;;;;;;;5.45;4.68;;;;;;;;;;500083;29;1411;-75
2023/03/17 01:23:06;;;;;;;5.75;3.50;;;;;;;;;;493327;29;1369;-75
2023/03/17 01:23:30;;;;;;;5.18;3.50;;;;;;;;;;497470;29;1530;-76
2023/03/17 01:23:55;;;;;;;4.25;3.50;;;;;;;;;;493593;29;1334;-76
2023/03/17 01:24:11;;;;;;;5.05;3.78;;;;;;;;;;496914;29;1650;-75
2023/03/17 01:26:06;;;;;;;7.20;6.15;;;;;;;;;;494469;29;1071;-75
2023/03/17 01:26:51;;;;;;;5.10;4.70;;;;;;;;;;486627;29;2037;-76
2023/03/17 01:27:07;;;;;;;5.07;4.40;;;;;;;;;;487081;29;1453;-75
2023/03/17 01:27:44;;;;;;;5.70;4.50;;;;;;;;;;487049;29;1215;-75
2023/03/17 01:28:26;;;;;;;4.88;4.28;;;;;;;;;;486876;29;1303;-75
2023/03/17 01:29:06;;;;;;;5.50;3.90;;;;;;;;;;487208;29;1465;-76
2023/03/17 01:30:05;;;;;;;4.50;3.20;;;;;;;;;;487549;29;1451;-77
2023/03/17 01:30:50;;;;;;;4.63;3.20;;;;;;;;;;484130;29;1154;-75
2023/03/17 01:31:05;;;;;;;4.65;3.35;;;;;;;;;;485160;29;1463;-76
2023/03/17 01:31:41;;;;;;;5.63;3.38;;;;;;;;;;486209;29;1600;-76
2023/03/17 01:32:09;;;;;;;4.93;3.20;;;;;;;;;;476080;30;1349;-76
2023/03/17 01:32:54;;;;;;;3.95;3.05;;;;;;;;;;484184;29;1328;-77
2023/03/17 01:33:56;;;;;;;5.15;3.63;;;;;;;;;;488533;29;1579;-76
2023/03/17 01:34:12;;;;;;;4.85;3.50;;;;;;;;;;487024;29;1471;-76
2023/03/17 01:34:38;;;;;;;4.68;3.40;;;;;;;;;;491205;29;1375;-76
2023/03/17 01:35:17;;;;;;;7.07;3.42;;;;;;;;;;488936;29;1330;-76
2023/03/17 01:35:43;;;;;;;5.03;3.45;;;;;;;;;;485392;29;1581;-76
2023/03/17 01:36:19;;;;;;;5.00;3.45;;;;;;;;;;487875;29;1410;-76
2023/03/17 01:36:36;;;;;;;4.80;3.35;;;;;;;;;;485320;29;1561;-76
2023/03/17 01:36:52;;;;;;;4.32;3.40;;;;;;;;;;487874;29;1192;-76
2023/03/17 01:37:08;;;;;;;4.65;3.20;;;;;;;;;;489206;29;1469;-76
2023/03/17 01:38:07;;;;;;;4.70;3.13;;;;;;;;;;489178;29;1334;-76
2023/03/17 01:38:46;;;;;;;4.20;3.20;;;;;;;;;;486355;29;1250;-77
2023/03/17 01:39:04;;;;;;;4.13;3.22;;;;;;;;;;486783;29;1563;-77
2023/03/17 01:39:28;;;;;;;4.28;3.33;;;;;;;;;;487189;29;1582;-76
2023/03/17 01:39:56;;;;;;;3.97;2.92;;;;;;;;;;487702;29;1320;-76
2023/03/17 01:40:27;;;;;;;5.90;3.40;;;;;;;;;;489497;29;1402;-76
2023/03/17 01:41:03;;;;;;;4.55;3.20;;;;;;;;;;488053;29;1186;-76
2023/03/17 01:42:03;;;;;;;4.40;3.38;;;;;;;;;;487074;29;1259;-76
2023/03/17 01:42:21;;;;;;;5.60;3.50;;;;;;;;;;483075;30;1187;-76
2023/03/17 01:42:39;;;;;;;4.97;3.40;;;;;;;;;;481476;30;1578;-76
2023/03/17 01:43:41;;;;;;;4.60;3.40;;;;;;;;;;482802;30;1431;-76
2023/03/17 01:43:56;;;;;;;4.15;3.03;;;;;;;;;;481537;30;1209;-76
2023/03/17 01:44:40;;;;;;;4.43;3.15;;;;;;;;;;480800;30;1263;-76
2023/03/17 01:45:38;;;;;;;4.32;3.20;;;;;;;;;;479449;30;1350;-75
2023/03/17 01:46:39;;;;;;;;;;;;;;;;;;;;;
2023/03/17 01:47:21;;;;;;;4.53;3.20;;;;;;;;;;481319;30;1405;-76
2023/03/17 01:48:05;;;;;;;4.22;3.28;;;;;;;;;;482202;30;1353;-76
2023/03/17 01:48:30;;;;;;;6.35;3.42;;;;;;;;;;484452;29;1507;-76
2023/03/17 01:49:04;;;;;;;5.72;3.40;;;;;;;;;;483739;30;1500;-76
2023/03/17 01:49:49;;;;;;;4.55;3.33;;;;;;;;;;483583;30;1260;-76
2023/03/17 01:50:08;;;;;;;4.80;3.20;;;;;;;;;;483620;30;1602;-75
2023/03/17 01:50:33;;;;;;;4.97;3.20;;;;;;;;;;483527;30;1387;-76
2023/03/17 01:51:22;;;;;;;3.97;2.95;;;;;;;;;;480124;30;1460;-76
2023/03/17 01:52:03;;;;;;;4.32;3.30;;;;;;;;;;482815;30;1498;-76
2023/03/17 01:52:50;;;;;;;4.65;3.13;;;;;;;;;;482295;30;2008;-78
2023/03/17 01:53:06;;;;;;;5.10;3.30;;;;;;;;;;482121;30;1582;-75
2023/03/17 01:54:09;;;;;;;6.22;3.28;;;;;;;;;;480224;30;1479;-75
2023/03/17 01:55:03;;;;;;;5.95;3.30;;;;;;;;;;475591;30;1191;-76
2023/03/17 01:55:16;;;;;;;5.00;3.33;;;;;;;;;;482409;30;1315;-75
2023/03/17 01:55:55;;;;;;;5.40;3.30;;;;;;;;;;480594;30;1322;-75
2023/03/17 01:56:11;;;;;;;5.45;3.50;;;;;;;;;;483536;30;1596;-75
2023/03/17 01:57:52;;;;;;;4.45;3.10;;;;;;;;;;486818;29;1407;-75
2023/03/17 01:58:28;;;;;;;4.93;3.33;;;;;;;;;;485355;29;1504;-76
2023/03/17 01:58:53;;;;;;;5.78;3.65;;;;;;;;;;484403;29;2173;-75
2023/03/17 01:59:12;;;;;;;5.47;4.00;;;;;;;;;;489668;29;1245;-75
2023/03/17 02:00:08;;;;;;;4.72;4.10;;;;;;;;;;490847;29;1419;-75
2023/03/17 02:00:47;;;;;;;4.93;3.78;;;;;;;;;;491088;29;1588;-75
2023/03/17 02:01:29;;;;;;;4.00;3.60;;;;;;;;;;500614;29;1369;-75
2023/03/17 02:02:07;;;;;;;5.65;3.67;;;;;;;;;;504742;28;1491;-75
2023/03/17 02:03:06;;;;;;;4.22;3.42;;;;;;;;;;508649;28;1591;-76
2023/03/17 02:03:23;;;;;;;5.10;3.28;;;;;;;;;;498751;29;1379;-76
2023/03/17 02:04:08;;;;;;;4.80;3.10;;;;;;;;;;503847;28;1658;-75
2023/03/17 02:04:25;;;;;;;4.47;3.25;;;;;;;;;;500132;28;1767;-76
2023/03/17 02:04:41;;;;;;;4.70;3.30;;;;;;;;;;505206;28;1468;-76
2023/03/17 02:04:57;;;;;;;4.65;3.50;;;;;;;;;;505467;28;1013;-76
2023/03/17 02:05:17;;;;;;;5.18;3.33;;;;;;;;;;504195;28;1296;-76
2023/03/17 02:05:38;;;;;;;4.25;3.20;;;;;;;;;;505035;28;1483;-76
2023/03/17 02:06:06;;;;;;;5.90;3.20;;;;;;;;;;503987;28;1507;-75
2023/03/17 02:07:04;;;;;;;4.13;3.03;;;;;;;;;;503805;28;2020;-76
2023/03/17 02:07:35;;;;;;;4.03;3.20;;;;;;;;;;501055;29;1565;-75
2023/03/17 02:08:08;;;;;;;5.50;3.20;;;;;;;;;;500682;28;1368;-75
2023/03/17 02:08:33;;;;;;;4.35;3.63;;;;;;;;;;504125;28;2615;-75
2023/03/17 02:09:02;;;;;;;4.77;3.53;;;;;;;;;;503406;28;1368;-76
2023/03/17 02:09:21;;;;;;;5.63;3.42;;;;;;;;;;501836;28;1585;-76
2023/03/17 02:10:03;;;;;;;4.97;3.38;;;;;;;;;;503779;28;1420;-75
2023/03/17 02:10:24;;;;;;;4.50;3.30;;;;;;;;;;500734;28;1466;-75
2023/03/17 02:12:09;;;;;;;4.75;3.33;;;;;;;;;;499275;29;1592;-76
2023/03/17 02:13:43;;;;;;;5.40;3.35;;;;;;;;;;501862;29;1498;-75
2023/03/17 02:14:22;;;;;;;4.20;3.20;;;;;;;;;;500467;28;1447;-76
2023/03/17 02:14:57;;;;;;;;;;;;;;;;;;;;;
2023/03/17 02:15:47;;;;;;;4.57;3.25;;;;;;;;;;498550;29;1344;-76
2023/03/17 02:16:06;;;;;;;4.30;3.13;;;;;;;;;;491186;29;1179;-76
2023/03/17 02:16:27;;;;;;;4.32;3.20;;;;;;;;;;494657;29;1241;-76
2023/03/17 02:17:04;;;;;;;4.25;3.15;;;;;;;;;;494286;29;1382;-76
2023/03/17 02:17:56;;;;;;;4.88;3.30;;;;;;;;;;496670;29;1892;-75
2023/03/17 02:19:04;;;;;;;4.35;3.33;;;;;;;;;;497929;29;1455;-76
2023/03/17 02:19:29;;;;;;;3.90;3.30;;;;;;;;;;499354;29;1430;-75
2023/03/17 02:19:45;;;;;;;5.30;3.30;;;;;;;;;;494578;29;1383;-75
2023/03/17 02:20:19;;;;;;;4.65;3.30;;;;;;;;;;493722;29;1013;-76
2023/03/17 02:20:35;;;;;;;4.03;3.30;;;;;;;;;;493530;29;1397;-75
2023/03/17 02:22:09;;;;;;;5.75;3.30;;;;;;;;;;495647;29;1132;-75
2023/03/17 02:22:28;;;;;;;5.97;3.40;;;;;;;;;;492176;29;1795;-75
2023/03/17 02:23:06;;;;;;;5.93;3.60;;;;;;;;;;491403;29;1347;-75
2023/03/17 02:23:46;;;;;;;3.97;3.22;;;;;;;;;;491737;29;1400;-75
2023/03/17 02:24:11;;;;;;;5.07;3.30;;;;;;;;;;491122;29;1519;-75
2023/03/17 02:25:06;;;;;;;5.70;3.50;;;;;;;;;;497018;29;1346;-75
2023/03/17 02:26:07;;;;;;;4.53;3.10;;;;;;;;;;493072;29;1364;-75
2023/03/17 02:26:11;;;;;;;4.90;3.33;;;;;;;;;;493797;29;1438;-75
2023/03/17 02:28:09;;;;;;;5.30;3.30;;;;;;;;;;487700;29;1391;-75
2023/03/17 02:29:05;;;;;;;4.97;3.50;;;;;;;;;;488816;29;1509;-75
2023/03/17 02:29:48;;;;;;;5.03;3.50;;;;;;;;;;486002;29;1394;-76
2023/03/17 02:30:09;;;;;;;5.72;3.50;;;;;;;;;;490366;29;1406;-75
2023/03/17 02:31:07;;;;;;;6.18;3.60;;;;;;;;;;490576;29;1276;-75
2023/03/17 02:31:37;;;;;;;;;;;;;;;;;;;;;
2023/03/17 02:32:34;;;;;;;4.18;3.50;;;;;;;;;;494541;29;1197;-75
2023/03/17 02:32:53;;;;;;;5.88;3.60;;;;;;;;;;490801;29;1181;-75
2023/03/17 02:33:44;;;;;;;5.28;3.45;;;;;;;;;;491854;29;1493;-75
2023/03/17 02:34:20;;;;;;;5.18;3.55;;;;;;;;;;493489;29;1531;-76
2023/03/17 02:34:59;;;;;;;4.22;3.40;;;;;;;;;;492403;29;1359;-75
2023/03/17 02:36:31;;;;;;;4.55;3.35;;;;;;;;;;490066;29;1066;-75
2023/03/17 02:36:39;;;;;;;4.57;3.45;;;;;;;;;;491652;29;1526;-75
2023/03/17 02:37:38;;;;;;;4.60;3.33;;;;;;;;;;489742;29;1494;-75
2023/03/17 02:38:09;;;;;;;4.55;3.55;;;;;;;;;;492830;29;1296;-76
2023/03/17 02:38:31;;;;;;;5.15;3.47;;;;;;;;;;491100;29;1495;-75
2023/03/17 02:39:03;;;;;;;4.95;3.47;;;;;;;;;;490282;29;1262;-76
2023/03/17 02:39:22;;;;;;;3.53;3.20;;;;;;;;;;491128;29;1351;-76
2023/03/17 02:39:52;;;;;;;4.47;3.50;;;;;;;;;;492208;29;1345;-76
2023/03/17 02:40:10;;;;;;;5.35;3.50;;;;;;;;;;492430;29;1896;-76
2023/03/17 02:40:54;;;;;;;5.20;3.42;;;;;;;;;;493651;29;1571;-75
2023/03/17 02:41:10;;;;;;;4.15;3.20;;;;;;;;;;493019;29;1539;-76
2023/03/17 02:42:05;;;;;;;5.00;3.30;;;;;;;;;;492850;29;1476;-76
2023/03/17 02:42:26;;;;;;;4.00;3.30;;;;;;;;;;488660;29;1290;-76
2023/03/17 02:42:52;;;;;;;4.45;3.55;;;;;;;;;;488460;29;1376;-76
2023/03/17 02:43:08;;;;;;;4.07;3.35;;;;;;;;;;493772;29;1484;-76
2023/03/17 02:43:26;;;;;;;4.55;3.15;;;;;;;;;;493214;29;1425;-75
2023/03/17 02:43:42;;;;;;;5.22;3.38;;;;;;;;;;491805;29;1783;-75
2023/03/17 02:44:06;;;;;;;4.68;3.42;;;;;;;;;;493068;29;1623;-75
2023/03/17 02:44:31;;;;;;;4.85;3.55;;;;;;;;;;495217;29;1443;-76
2023/03/17 02:45:12;;;;;;;5.53;3.42;;;;;;;;;;493780;29;1333;-75
2023/03/17 02:46:48;;;;;;;4.43;3.40;;;;;;;;;;493105;29;1142;-75
2023/03/17 02:47:07;;;;;;;4.25;3.30;;;;;;;;;;494123;29;1285;-75
2023/03/17 02:47:52;;;;;;;4.32;3.42;;;;;;;;;;494915;29;1497;-75
2023/03/17 02:48:08;;;;;;;4.32;3.20;;;;;;;;;;489694;29;1295;-76
2023/03/17 02:48:48;;;;;;;4.35;3.40;;;;;;;;;;493237;29;1445;-76
2023/03/17 02:49:04;;;;;;;4.70;3.92;;;;;;;;;;494266;29;949;-75
2023/03/17 02:50:13;;;;;;;4.88;3.70;;;;;;;;;;495141;29;1444;-75
2023/03/17 02:51:15;;;;;;;5.10;3.40;;;;;;;;;;493282;29;1810;-75
2023/03/17 02:51:53;;;;;;;4.43;3.35;;;;;;;;;;487758;29;1309;-76
2023/03/17 02:52:08;;;;;;;5.75;3.53;;;;;;;;;;489356;29;1417;-75
2023/03/17 02:52:50;;;;;;;5.97;3.60;;;;;;;;;;487700;29;1338;-77
2023/03/17 02:53:07;;;;;;;4.63;3.40;;;;;;;;;;488474;29;1402;-77
2023/03/17 02:53:32;;;;;;;;;;;;;;;;;;;;;
2023/03/17 02:54:04;;;;;;;5.63;3.75;;;;;;;;;;492788;29;1116;-74
2023/03/17 02:54:40;;;;;;;5.88;3.40;;;;;;;;;;493885;29;1393;-74
2023/03/17 02:55:05;;;;;;;5.05;3.40;;;;;;;;;;491788;29;1466;-74
2023/03/17 02:55:23;;;;;;;4.72;3.40;;;;;;;;;;493128;29;1375;-74
2023/03/17 02:55:40;;;;;;;4.00;3.20;;;;;;;;;;491021;29;1196;-75
2023/03/17 02:56:05;;;;;;;3.80;3.20;;;;;;;;;;493907;29;1536;-74
2023/03/17 02:56:33;;;;;;;4.00;3.35;;;;;;;;;;494361;29;1582;-76
2023/03/17 02:57:09;;;;;;;4.88;3.50;;;;;;;;;;491592;29;1561;-76
2023/03/17 02:57:38;;;;;;;;;;;;;;;;;;;;;
2023/03/17 02:58:06;;;;;;;5.80;3.50;;;;;;;;;;494584;29;1105;-76
2023/03/17 02:58:21;;;;;;;3.97;3.08;;;;;;;;;;495445;29;1575;-76
2023/03/17 02:59:03;;;;;;;4.40;3.28;;;;;;;;;;496211;29;1785;-76
2023/03/17 02:59:33;;;;;;;5.28;3.60;;;;;;;;;;495838;29;1444;-76
2023/03/17 02:59:49;;;;;;;4.45;3.60;;;;;;;;;;495370;29;1409;-76
2023/03/17 03:00:05;;;;;;;4.25;3.45;;;;;;;;;;494719;29;1702;-76
2023/03/17 03:00:33;;;;;;;5.03;3.53;;;;;;;;;;495342;29;1336;-76
2023/03/17 03:01:09;;;;;;;4.20;3.47;;;;;;;;;;493076;29;1601;-76
2023/03/17 03:01:53;;;;;;;;;;;;;;;;;;;;;
2023/03/17 03:02:10;;;;;;;5.28;3.70;;;;;;;;;;494067;29;960;-76
2023/03/17 03:02:51;;;;;;;4.63;3.50;;;;;;;;;;492783;29;1394;-76
2023/03/17 03:03:07;;;;;;;4.15;3.60;;;;;;;;;;492115;29;1414;-76
2023/03/17 03:03:43;;;;;;;4.78;3.50;;;;;;;;;;498037;29;1273;-76
2023/03/17 03:04:08;;;;;;;4.32;3.45;;;;;;;;;;497913;29;1211;-76
2023/03/17 03:05:06;;;;;;;4.30;3.50;;;;;;;;;;500007;29;1896;-76
2023/03/17 03:05:20;;;;;;;5.65;3.47;;;;;;;;;;499985;29;1159;-77
2023/03/17 03:06:03;;;;;;;4.70;3.20;;;;;;;;;;499704;29;1316;-77
2023/03/17 03:07:12;;;;;;;4.65;3.40;;;;;;;;;;506447;28;1384;-76
2023/03/17 03:07:50;;;;;;;4.72;3.42;;;;;;;;;;503131;28;1153;-77
2023/03/17 03:08:23;;;;;;;5.33;3.60;;;;;;;;;;503264;28;1481;-77
2023/03/17 03:09:02;;;;;;;4.32;3.22;;;;;;;;;;501076;28;1366;-78
2023/03/17 03:10:06;;;;;;;5.03;3.40;;;;;;;;;;499574;29;889;-78
2023/03/17 03:10:09;;;;;;;5.95;3.50;;;;;;;;;;502239;28;1335;-77
2023/03/17 03:11:33;;;;;;;5.15;3.38;;;;;;;;;;494082;29;1051;-78
2023/03/17 03:11:57;;;;;;;4.72;3.50;;;;;;;;;;494936;29;1295;-78
2023/03/17 03:12:35;;;;;;;4.53;3.30;;;;;;;;;;500829;29;1453;-78
2023/03/17 03:13:10;;;;;;;5.43;3.42;;;;;;;;;;499436;29;1155;-78
2023/03/17 03:13:29;;;;;;;4.95;3.40;;;;;;;;;;499748;29;1334;-77
2023/03/17 03:14:05;;;;;;;4.68;3.35;;;;;;;;;;500673;28;1417;-78
2023/03/17 03:14:23;;;;;;;4.70;3.33;;;;;;;;;;500395;29;1487;-78
2023/03/17 03:15:05;;;;;;;5.82;3.50;;;;;;;;;;499594;29;1337;-78
2023/03/17 03:15:21;;;;;;;5.20;3.47;;;;;;;;;;496654;29;1694;-78
2023/03/17 03:16:09;;;;;;;4.95;3.38;;;;;;;;;;493907;29;1402;-78
2023/03/17 03:17:01;;;;;;;;;;;;;;;;;;;;;
2023/03/17 03:17:31;;;;;;;5.10;3.65;;;;;;;;;;498866;29;1466;-79
2023/03/17 03:18:05;;;;;;;4.45;3.30;;;;;;;;;;503520;28;1261;-78
2023/03/17 03:18:23;;;;;;;5.07;3.55;;;;;;;;;;504307;28;1226;-78
2023/03/17 03:19:02;;;;;;;4.45;3.50;;;;;;;;;;500784;29;1320;-77
2023/03/17 03:20:02;;;;;;;4.88;3.47;;;;;;;;;;501995;29;1346;-77
2023/03/17 03:20:15;;;;;;;7.50;3.40;;;;;;;;;;500137;29;1563;-78
2023/03/17 03:20:33;;;;;;;6.22;3.40;;;;;;;;;;499975;28;1470;-78
2023/03/17 03:21:04;;;;;;;4.32;3.30;;;;;;;;;;501933;28;1508;-77
2023/03/17 03:21:28;;;;;;;4.28;3.45;;;;;;;;;;501920;28;1448;-78
2023/03/17 03:21:48;;;;;;;5.72;3.50;;;;;;;;;;502022;28;1438;-77
2023/03/17 03:22:04;;;;;;;4.75;3.53;;;;;;;;;;501690;28;1614;-77
2023/03/17 03:23:02;;;;;;;4.35;3.40;;;;;;;;;;502548;28;1300;-78
2023/03/17 03:24:02;;;;;;;5.15;3.63;;;;;;;;;;501793;28;1609;-78
2023/03/17 03:25:59;;;;;;;;;;;;;;;;;;;;;
2023/03/17 03:26:21;;;;;;;4.15;3.38;;;;;;;;;;496904;29;1192;-78
2023/03/17 03:27:03;;;;;;;3.97;3.42;;;;;;;;;;494325;29;1924;-78
2023/03/17 03:27:22;;;;;;;4.53;3.50;;;;;;;;;;493259;29;1312;-77
2023/03/17 03:28:05;;;;;;;4.60;3.63;;;;;;;;;;491261;29;1342;-77
2023/03/17 03:28:44;;;;;;;5.80;3.53;;;;;;;;;;492313;29;1310;-77
2023/03/17 03:29:06;;;;;;;5.07;3.42;;;;;;;;;;489649;29;1612;-77
2023/03/17 03:30:07;;;;;;;5.95;3.67;;;;;;;;;;500926;29;956;-77
2023/03/17 03:30:10;;;;;;;4.80;3.50;;;;;;;;;;502045;29;1547;-78
2023/03/17 03:30:46;;;;;;;5.40;3.50;;;;;;;;;;498471;29;1490;-77
2023/03/17 03:31:50;;;;;;;5.40;3.50;;;;;;;;;;495806;29;1476;-76
2023/03/17 03:32:02;;;;;;;4.53;3.35;;;;;;;;;;498145;29;1378;-77
2023/03/17 03:32:50;;;;;;;4.22;3.38;;;;;;;;;;502032;28;1261;-77
2023/03/17 03:33:06;;;;;;;4.00;3.40;;;;;;;;;;496680;29;1482;-77
2023/03/17 03:33:52;;;;;;;4.00;3.35;;;;;;;;;;499927;29;1590;-77
2023/03/17 03:34:07;;;;;;;5.65;3.60;;;;;;;;;;509606;28;1190;-77
2023/03/17 03:34:23;;;;;;;4.90;3.40;;;;;;;;;;506182;28;1270;-77
2023/03/17 03:34:47;;;;;;;4.57;3.30;;;;;;;;;;505892;28;1363;-77
2023/03/17 03:35:07;;;;;;;5.30;3.47;;;;;;;;;;507434;28;1647;-77
2023/03/17 03:35:26;;;;;;;4.97;3.55;;;;;;;;;;507883;28;1532;-77
2023/03/17 03:35:51;;;;;;;5.85;3.50;;;;;;;;;;507465;28;1187;-77
2023/03/17 03:36:07;;;;;;;4.45;3.30;;;;;;;;;;507107;28;1432;-77
2023/03/17 03:37:47;;;;;;;5.18;3.47;;;;;;;;;;498217;29;1088;-77
2023/03/17 03:38:03;;;;;;;5.28;3.65;;;;;;;;;;495654;29;1509;-77
2023/03/17 03:38:20;;;;;;;5.60;3.78;;;;;;;;;;498318;29;1357;-77
2023/03/17 03:38:36;;;;;;;5.25;3.67;;;;;;;;;;504236;28;1478;-78
2023/03/17 03:38:52;;;;;;;4.93;3.63;;;;;;;;;;501855;28;1665;-78
2023/03/17 03:39:11;;;;;;;5.03;3.65;;;;;;;;;;504076;28;1513;-77
2023/03/17 03:39:27;;;;;;;5.18;3.50;;;;;;;;;;504319;28;1320;-77
2023/03/17 03:39:55;;;;;;;5.30;3.63;;;;;;;;;;504178;28;1543;-77
2023/03/17 03:41:03;;;;;;;5.30;3.67;;;;;;;;;;505032;28;1053;-78
2023/03/17 03:41:05;;;;;;;4.95;3.63;;;;;;;;;;502646;28;1189;-78
2023/03/17 03:41:23;;;;;;;6.22;3.85;;;;;;;;;;505785;28;1402;-77
2023/03/17 03:42:33;;;;;;;5.68;3.72;;;;;;;;;;503364;28;1184;-77
2023/03/17 03:43:04;;;;;;;4.45;3.50;;;;;;;;;;505738;28;1288;-77
2023/03/17 03:44:05;;;;;;;5.43;3.65;;;;;;;;;;499571;29;1411;-77
2023/03/17 03:44:55;;;;;;;;;;;;;;;;;;;;;